createdAt,value
2019-05-21T00:01:14.848Z,40.45
2019-05-21T00:03:41.729Z,37.42
2019-05-21T00:06:08.712Z,43.30
2019-05-21T00:08:35.522Z,43.08
2019-05-21T00:11:02.517Z,44.35
2019-05-21T00:13:29.521Z,40.75
2019-05-21T00:15:56.532Z,42.03
2019-05-21T00:18:23.331Z,45.00
2019-05-21T00:20:50.136Z,42.93
2019-05-21T00:23:17.031Z,45.12
2019-05-21T00:25:44.114Z,45.08
2019-05-21T00:28:34.644Z,40.25
2019-05-21T00:31:58.179Z,46.25
2019-05-21T00:35:23.513Z,47.90
2019-05-21T00:38:46.891Z,44.20
2019-05-21T00:42:04.308Z,44.10
2019-05-21T00:44:41.317Z,48.45
2019-05-21T00:47:11.366Z,46.73
2019-05-21T00:49:39.232Z,43.35
2019-05-21T00:52:08.758Z,45.08
2019-05-21T00:54:35.731Z,45.88
2019-05-21T00:57:03.095Z,46.35
2019-05-21T00:59:30.599Z,42.50
2019-05-21T01:01:57.686Z,50.30
2019-05-21T01:04:24.691Z,44.40
2019-05-21T01:06:51.666Z,45.70
2019-05-21T01:09:18.554Z,51.75
2019-05-21T01:11:48.820Z,51.55
2019-05-21T01:14:15.948Z,50.15
2019-05-21T01:16:42.795Z,48.58
2019-05-21T01:19:09.782Z,50.17
2019-05-21T01:21:36.576Z,48.55
2019-05-21T01:24:04.346Z,49.33
2019-05-21T01:26:31.379Z,40.08
2019-05-21T01:28:58.183Z,42.62
2019-05-21T01:31:25.044Z,42.50
2019-05-21T01:33:51.815Z,38.50
2019-05-21T01:36:20.604Z,34.25
2019-05-21T01:38:47.516Z,35.20
2019-05-21T01:41:14.376Z,34.27
2019-05-21T01:43:41.292Z,36.60
2019-05-21T01:46:08.199Z,28.92
2019-05-21T01:48:35.293Z,30.48
2019-05-21T01:51:02.721Z,26.85
2019-05-21T01:53:29.500Z,29.05
2019-05-21T01:55:56.362Z,26.10
2019-05-21T01:58:23.643Z,29.30
2019-05-21T02:00:50.403Z,24.55
2019-05-21T02:03:17.396Z,26.73
2019-05-21T02:05:44.203Z,26.12
2019-05-21T02:08:13.185Z,23.95
2019-05-21T02:10:39.995Z,26.57
2019-05-21T02:13:07.660Z,23.87
2019-05-21T02:15:34.662Z,25.25
2019-05-21T02:18:01.472Z,24.45
2019-05-21T02:20:28.749Z,24.40
2019-05-21T02:22:55.698Z,23.10
2019-05-21T02:25:22.598Z,24.82
2019-05-21T02:27:49.348Z,23.47
2019-05-21T02:30:17.319Z,21.93
2019-05-21T02:32:44.231Z,24.27
2019-05-21T02:35:11.427Z,23.45
2019-05-21T02:37:38.221Z,23.50
2019-05-21T02:40:07.131Z,22.73
2019-05-21T02:42:34.924Z,23.12
2019-05-21T02:45:03.133Z,22.90
2019-05-21T02:47:30.309Z,26.95
2019-05-21T02:49:57.082Z,26.70
2019-05-21T02:52:23.886Z,26.12
2019-05-21T02:54:50.629Z,28.50
2019-05-21T02:57:17.540Z,26.57
2019-05-21T02:59:46.225Z,32.23
2019-05-21T03:02:27.028Z,32.40
2019-05-21T03:04:53.887Z,30.68
2019-05-21T03:07:20.798Z,35.35
2019-05-21T03:09:48.922Z,34.03
2019-05-21T03:12:17.046Z,38.20
2019-05-21T03:14:45.048Z,36.48
2019-05-21T03:17:12.423Z,37.53
2019-05-21T03:19:39.415Z,37.88
2019-05-21T03:22:06.544Z,36.10
2019-05-21T03:24:33.471Z,40.88
2019-05-21T03:27:00.510Z,40.90
2019-05-21T03:29:27.387Z,36.08
2019-05-21T03:31:54.321Z,39.70
2019-05-21T03:34:21.521Z,37.78
2019-05-21T03:36:48.453Z,35.35
2019-05-21T03:39:19.240Z,36.83
2019-05-21T03:41:44.169Z,37.88
2019-05-21T03:44:10.959Z,40.25
2019-05-21T03:46:38.496Z,38.30
2019-05-21T03:49:05.686Z,35.92
2019-05-21T03:51:32.571Z,35.45
2019-05-21T03:53:59.484Z,36.30
2019-05-21T03:56:26.287Z,37.35
2019-05-21T03:58:53.450Z,36.08
2019-05-21T04:01:20.217Z,33.28
2019-05-21T04:03:47.020Z,34.35
2019-05-21T04:06:13.764Z,38.33
2019-05-21T04:08:40.562Z,35.45
2019-05-21T04:11:07.803Z,35.65
2019-05-21T04:13:34.675Z,33.40
2019-05-21T04:16:06.158Z,30.90
2019-05-21T04:18:34.872Z,33.45
2019-05-21T04:21:01.623Z,31.25
2019-05-21T04:23:28.538Z,28.52
2019-05-21T04:25:55.318Z,26.80
2019-05-21T04:28:22.152Z,26.25
2019-05-21T04:30:51.858Z,22.93
2019-05-21T04:33:18.777Z,22.00
2019-05-21T04:35:45.525Z,24.75
2019-05-21T04:38:12.513Z,21.42
2019-05-21T04:40:39.304Z,22.45
2019-05-21T04:43:06.426Z,19.40
2019-05-21T04:45:33.242Z,16.25
2019-05-21T04:48:00.047Z,15.98
2019-05-21T04:50:27.033Z,18.55
2019-05-21T04:52:54.267Z,17.00
2019-05-21T04:55:21.063Z,17.50
2019-05-21T04:57:50.970Z,18.07
2019-05-21T05:00:18.081Z,18.02
2019-05-21T05:02:45.596Z,17.75
2019-05-21T05:05:13.576Z,15.85
2019-05-21T05:07:40.318Z,14.00
2019-05-21T05:10:07.734Z,15.53
2019-05-21T05:12:34.607Z,15.83
2019-05-21T05:15:01.587Z,16.37
2019-05-21T05:17:28.809Z,14.05
2019-05-21T05:19:56.091Z,16.23
2019-05-21T05:22:23.299Z,16.17
2019-05-21T05:24:50.165Z,18.07
2019-05-21T05:27:16.934Z,13.75
2019-05-21T05:29:43.722Z,13.55
2019-05-21T05:32:10.539Z,16.45
2019-05-21T05:34:37.394Z,17.27
2019-05-21T05:37:04.620Z,15.70
2019-05-21T05:39:31.580Z,14.68
2019-05-21T05:41:58.702Z,13.45
2019-05-21T05:44:25.904Z,16.00
2019-05-21T05:46:52.778Z,14.47
2019-05-21T05:49:21.550Z,13.72
2019-05-21T05:51:48.330Z,16.67
2019-05-21T05:54:15.117Z,14.23
2019-05-21T05:56:41.898Z,11.93
2019-05-21T05:59:09.035Z,12.55
2019-05-21T06:01:35.938Z,11.50
2019-05-21T06:04:03.091Z,11.70
2019-05-21T06:06:30.160Z,12.47
2019-05-21T06:08:56.994Z,10.20
2019-05-21T06:11:23.893Z,9.15
2019-05-21T06:13:50.912Z,9.40
2019-05-21T06:16:18.026Z,8.83
2019-05-21T06:18:45.425Z,8.75
2019-05-21T06:21:12.446Z,9.95
2019-05-21T06:23:39.231Z,8.28
2019-05-21T06:26:06.295Z,8.98
2019-05-21T06:28:33.113Z,10.28
2019-05-21T06:30:59.950Z,8.75
2019-05-21T06:33:26.825Z,10.35
2019-05-21T06:35:53.615Z,11.00
2019-05-21T06:38:20.509Z,10.05
2019-05-21T06:40:47.459Z,8.00
2019-05-21T06:43:14.711Z,10.32
2019-05-21T06:45:41.650Z,7.92
2019-05-21T06:48:08.478Z,9.43
2019-05-21T06:50:37.653Z,8.20
2019-05-21T06:53:04.195Z,8.03
2019-05-21T06:55:31.153Z,6.35
2019-05-21T06:57:58.045Z,6.60
2019-05-21T07:00:25.149Z,9.68
2019-05-21T07:02:51.927Z,9.50
2019-05-21T07:05:18.723Z,6.53
2019-05-21T07:07:45.498Z,7.58
2019-05-21T07:10:13.522Z,9.10
2019-05-21T07:12:40.355Z,6.50
2019-05-21T07:15:08.172Z,7.08
2019-05-21T07:17:35.640Z,8.40
2019-05-21T07:20:05.216Z,7.92
2019-05-21T07:22:31.999Z,6.45
2019-05-21T07:24:59.301Z,7.58
2019-05-21T07:27:26.729Z,5.67
2019-05-21T07:29:53.571Z,6.85
2019-05-21T07:32:20.459Z,7.05
2019-05-21T07:34:47.297Z,6.05
2019-05-21T07:37:14.095Z,5.65
2019-05-21T07:39:41.206Z,6.22
2019-05-21T07:42:08.178Z,5.35
2019-05-21T07:44:35.301Z,6.95
2019-05-21T07:47:02.504Z,5.92
2019-05-21T07:49:29.380Z,7.78
2019-05-21T07:51:56.539Z,8.05
2019-05-21T07:54:23.446Z,6.42
2019-05-21T07:56:50.818Z,6.95
2019-05-21T07:59:18.130Z,6.62
2019-05-21T08:01:44.957Z,9.33
2019-05-21T08:04:11.929Z,7.42
2019-05-21T08:06:38.749Z,9.60
2019-05-21T08:09:14.102Z,7.58
2019-05-21T08:11:36.313Z,8.95
2019-05-21T08:14:04.087Z,8.20
2019-05-21T08:16:30.861Z,6.70
2019-05-21T08:19:01.059Z,8.23
2019-05-21T08:21:28.324Z,6.40
2019-05-21T08:23:55.870Z,8.33
2019-05-21T08:26:22.659Z,7.42
2019-05-21T08:28:49.758Z,6.87
2019-05-21T08:31:16.813Z,7.45
2019-05-21T08:33:43.693Z,8.18
2019-05-21T08:36:10.678Z,7.50
2019-05-21T08:38:37.758Z,7.33
2019-05-21T08:41:04.925Z,6.80
2019-05-21T08:43:31.809Z,8.88
2019-05-21T08:45:58.781Z,7.45
2019-05-21T08:48:25.784Z,7.20
2019-05-21T08:50:52.717Z,8.73
2019-05-21T08:53:19.854Z,6.55
2019-05-21T08:55:46.658Z,6.50
2019-05-21T08:58:13.470Z,6.58
2019-05-21T09:00:40.334Z,9.25
2019-05-21T09:03:07.617Z,8.18
2019-05-21T09:05:34.660Z,7.90
2019-05-21T09:08:01.506Z,7.55
2019-05-21T09:10:28.654Z,7.87
2019-05-21T09:12:55.462Z,9.33
2019-05-21T09:15:22.529Z,6.90
2019-05-21T09:17:49.343Z,7.37
2019-05-21T09:20:17.603Z,8.15
2019-05-21T09:22:45.283Z,7.90
2019-05-21T09:25:13.031Z,8.85
2019-05-21T09:27:41.100Z,8.03
2019-05-21T09:30:09.849Z,6.17
2019-05-21T09:32:37.111Z,6.80
2019-05-21T09:38:00.961Z,6.30
2019-05-21T09:40:28.271Z,5.83
2019-05-21T09:42:57.711Z,8.33
2019-05-21T09:45:24.619Z,7.85
2019-05-21T09:47:51.537Z,8.25
2019-05-21T09:50:19.239Z,8.18
2019-05-21T09:52:46.743Z,9.43
2019-05-21T09:55:14.443Z,8.80
2019-05-21T09:57:59.768Z,8.38
2019-05-21T10:00:46.301Z,9.18
2019-05-21T10:03:21.092Z,8.58
2019-05-21T10:05:48.314Z,11.60
2019-05-21T10:08:15.225Z,10.60
2019-05-21T10:10:41.951Z,9.63
2019-05-21T10:13:10.801Z,9.88
2019-05-21T10:15:37.637Z,8.85
2019-05-21T10:18:04.752Z,9.33
2019-05-21T10:20:31.609Z,73.00
2019-05-21T10:22:59.302Z,28.98
2019-05-21T10:25:26.427Z,15.20
2019-05-21T10:27:53.231Z,15.13
2019-05-21T10:30:20.214Z,8.50
2019-05-21T10:32:47.211Z,8.30
2019-05-21T10:35:14.141Z,10.53
2019-05-21T10:37:53.918Z,10.30
2019-05-21T10:40:10.208Z,9.35
2019-05-21T10:42:37.059Z,10.98
2019-05-21T10:45:06.347Z,8.60
2019-05-21T10:47:33.604Z,10.90
2019-05-21T10:50:00.497Z,7.10
2019-05-21T10:52:27.881Z,8.35
2019-05-21T10:54:54.870Z,9.40
2019-05-21T10:57:22.137Z,8.30
2019-05-21T10:59:48.992Z,8.55
2019-05-21T11:02:22.859Z,9.03
2019-05-21T11:04:54.461Z,8.23
2019-05-21T11:07:22.257Z,7.58
2019-05-21T11:09:49.343Z,8.25
2019-05-21T11:12:16.438Z,8.08
2019-05-21T11:14:43.514Z,9.65
2019-05-21T11:17:11.412Z,9.00
2019-05-21T11:19:40.904Z,8.30
2019-05-21T11:22:08.092Z,7.22
2019-05-21T11:24:35.455Z,8.10
2019-05-21T11:27:04.721Z,8.63
2019-05-21T11:29:31.821Z,7.97
2019-05-21T11:31:59.157Z,7.15
2019-05-21T11:34:26.610Z,7.60
2019-05-21T11:36:53.668Z,7.35
2019-05-21T11:39:21.224Z,7.40
2019-05-21T11:41:48.141Z,7.40
2019-05-21T11:44:15.081Z,6.80
2019-05-21T11:46:42.852Z,5.78
2019-05-21T11:49:09.799Z,6.30
2019-05-21T11:51:36.884Z,7.28
2019-05-21T11:54:03.802Z,6.92
2019-05-21T11:56:30.830Z,7.53
2019-05-21T11:58:58.031Z,8.98
2019-05-21T12:01:25.312Z,7.85
2019-05-21T12:03:52.529Z,7.72
2019-05-21T12:06:19.458Z,8.70
2019-05-21T12:08:56.278Z,8.53
2019-05-21T12:11:15.332Z,10.95
2019-05-21T12:13:42.412Z,16.55
2019-05-21T12:16:09.836Z,7.17
2019-05-21T12:18:37.056Z,8.48
2019-05-21T12:21:04.190Z,6.90
2019-05-21T12:23:31.175Z,7.15
2019-05-21T12:25:58.140Z,9.88
2019-05-21T12:28:24.885Z,11.15
2019-05-21T12:30:51.729Z,10.65
2019-05-21T12:33:19.133Z,8.63
2019-05-21T12:35:47.520Z,11.97
2019-05-21T12:38:15.129Z,7.72
2019-05-21T12:40:42.066Z,6.08
2019-05-21T12:43:09.102Z,6.55
2019-05-21T12:45:36.319Z,7.08
2019-05-21T12:48:03.476Z,8.18
2019-05-21T12:50:30.500Z,8.60
2019-05-21T12:52:57.634Z,8.55
2019-05-21T12:55:25.090Z,7.47
2019-05-21T12:57:52.296Z,9.23
2019-05-21T13:00:24.807Z,7.50
2019-05-21T13:02:51.683Z,8.90
2019-05-21T13:05:18.667Z,9.10
2019-05-21T13:07:45.552Z,12.80
2019-05-21T13:10:16.052Z,14.23
2019-05-21T13:12:42.977Z,18.52
2019-05-21T13:15:10.060Z,19.62
2019-05-21T13:17:36.925Z,11.80
2019-05-21T13:20:06.933Z,10.82
2019-05-21T13:22:34.340Z,11.38
2019-05-21T13:25:03.031Z,11.95
2019-05-21T13:27:29.936Z,12.53
2019-05-21T13:29:56.714Z,14.98
2019-05-21T13:32:23.617Z,15.48
2019-05-21T13:34:51.178Z,15.98
2019-05-21T13:37:18.409Z,15.10
2019-05-21T13:39:50.201Z,13.95
2019-05-21T13:42:14.130Z,15.55
2019-05-21T13:44:41.224Z,18.05
2019-05-21T13:47:08.452Z,16.30
2019-05-21T13:49:35.227Z,17.55
2019-05-21T13:52:02.091Z,16.75
2019-05-21T13:54:28.885Z,17.40
2019-05-21T13:56:55.674Z,19.50
2019-05-21T13:59:22.812Z,13.60
2019-05-21T14:01:50.685Z,13.65
2019-05-21T14:04:17.902Z,15.48
2019-05-21T14:06:45.101Z,14.15
2019-05-21T14:09:12.159Z,17.67
2019-05-21T14:11:39.244Z,27.87
2019-05-21T14:14:06.555Z,14.78
2019-05-21T14:16:34.897Z,50.05
2019-05-21T14:19:02.542Z,19.15
2019-05-21T14:21:29.953Z,15.08
2019-05-21T14:23:58.520Z,14.38
2019-05-21T14:26:25.362Z,14.35
2019-05-21T14:28:52.334Z,14.87
2019-05-21T14:31:19.404Z,18.82
2019-05-21T14:33:46.957Z,13.80
2019-05-21T14:36:13.992Z,15.70
2019-05-21T14:38:41.185Z,16.77
2019-05-21T14:41:08.970Z,16.48
2019-05-21T14:43:36.106Z,14.40
2019-05-21T14:46:03.964Z,15.00
2019-05-21T14:48:30.811Z,13.28
2019-05-21T14:50:57.714Z,12.82
2019-05-21T14:53:25.053Z,11.90
2019-05-21T14:55:51.922Z,13.08
2019-05-21T14:58:18.859Z,11.15
2019-05-21T15:00:46.191Z,10.43
2019-05-21T15:03:24.887Z,11.45
2019-05-21T15:05:44.072Z,10.95
2019-05-21T15:08:10.988Z,12.37
2019-05-21T15:10:47.973Z,12.85
2019-05-21T15:13:06.843Z,12.63
2019-05-21T15:15:34.334Z,11.25
2019-05-21T15:18:01.074Z,12.35
2019-05-21T15:20:30.403Z,13.13
2019-05-21T15:22:57.386Z,13.28
2019-05-21T15:25:24.488Z,14.47
2019-05-21T15:27:51.582Z,12.90
2019-05-21T15:30:18.613Z,14.65
2019-05-21T15:32:45.563Z,14.73
2019-05-21T15:35:12.749Z,15.98
2019-05-21T15:37:39.752Z,16.85
2019-05-21T15:40:09.211Z,14.10
2019-05-21T15:42:36.140Z,15.55
2019-05-21T15:45:07.535Z,12.80
2019-05-21T15:47:34.504Z,13.22
2019-05-21T15:50:01.536Z,14.68
2019-05-21T15:52:28.873Z,15.38
2019-05-21T15:54:55.740Z,15.93
2019-05-21T15:57:22.542Z,14.10
2019-05-21T15:59:49.303Z,14.95
2019-05-21T16:02:16.326Z,14.07
2019-05-21T16:04:43.176Z,14.50
2019-05-21T16:07:10.333Z,13.78
2019-05-21T16:09:37.150Z,13.55
2019-05-21T16:12:04.078Z,12.88
2019-05-21T16:14:31.024Z,14.15
2019-05-21T16:16:58.226Z,12.25
2019-05-21T16:19:25.068Z,13.93
2019-05-21T16:21:51.965Z,14.38
2019-05-21T16:24:18.884Z,14.40
2019-05-21T16:26:45.707Z,14.65
2019-05-21T16:29:12.530Z,16.00
2019-05-21T16:31:39.634Z,14.50
2019-05-21T16:34:06.525Z,14.05
2019-05-21T16:36:33.613Z,12.58
2019-05-21T16:39:00.839Z,14.60
2019-05-21T16:41:43.110Z,14.20
2019-05-21T16:43:56.665Z,13.68
2019-05-21T16:46:23.687Z,11.70
2019-05-21T16:48:50.810Z,12.10
2019-05-21T16:51:18.215Z,12.35
2019-05-21T16:53:44.983Z,10.53
2019-05-21T16:56:11.959Z,12.03
2019-05-21T16:58:39.284Z,11.75
2019-05-21T17:01:07.407Z,12.68
2019-05-21T17:03:36.535Z,12.20
2019-05-21T17:06:03.641Z,13.75
2019-05-21T17:08:30.589Z,12.47
2019-05-21T17:10:57.803Z,16.87
2019-05-21T17:13:25.501Z,11.33
2019-05-21T17:15:52.424Z,11.57
2019-05-21T17:18:19.533Z,9.70
2019-05-21T17:20:48.249Z,11.03
2019-05-21T17:23:15.517Z,10.53
2019-05-21T17:25:42.559Z,10.40
2019-05-21T17:28:10.428Z,10.45
2019-05-21T17:30:37.344Z,13.03
2019-05-21T17:33:04.573Z,10.35
2019-05-21T17:35:32.324Z,10.32
2019-05-21T17:37:59.413Z,10.90
2019-05-21T17:40:26.548Z,12.58
2019-05-21T17:42:53.567Z,11.22
2019-05-21T17:45:20.514Z,11.65
2019-05-21T17:47:47.489Z,10.60
2019-05-21T17:50:15.062Z,12.37
2019-05-21T17:52:42.131Z,12.80
2019-05-21T17:55:11.205Z,13.08
2019-05-21T17:57:38.224Z,12.75
2019-05-21T18:00:08.416Z,13.65
2019-05-21T18:02:35.793Z,13.58
2019-05-21T18:05:06.816Z,12.93
2019-05-21T18:07:34.893Z,13.22
2019-05-21T18:10:06.734Z,16.40
2019-05-21T18:12:34.132Z,14.20
2019-05-21T18:15:01.265Z,12.10
2019-05-21T18:17:30.269Z,12.95
2019-05-21T18:19:58.984Z,14.10
2019-05-21T18:22:28.776Z,13.08
2019-05-21T18:24:56.487Z,15.13
2019-05-21T18:27:24.311Z,13.85
2019-05-21T18:29:51.241Z,14.75
2019-05-21T18:32:18.466Z,14.50
2019-05-21T18:34:45.589Z,17.02
2019-05-21T18:37:15.919Z,17.48
2019-05-21T18:39:42.774Z,17.85
2019-05-21T18:42:21.559Z,18.75
2019-05-21T18:44:38.969Z,19.75
2019-05-21T18:47:05.887Z,17.85
2019-05-21T18:49:32.794Z,17.82
2019-05-21T18:51:59.675Z,17.95
2019-05-21T18:54:26.730Z,16.60
2019-05-21T18:56:54.202Z,19.27
2019-05-21T18:59:21.482Z,17.07
2019-05-21T19:01:48.774Z,19.02
2019-05-21T19:04:16.037Z,18.60
2019-05-21T19:06:43.741Z,18.52
2019-05-21T19:09:10.859Z,18.37
2019-05-21T19:11:38.400Z,18.30
2019-05-21T19:14:05.446Z,20.02
2019-05-21T19:16:32.392Z,18.50
2019-05-21T19:18:59.420Z,17.30
2019-05-21T19:21:26.590Z,22.27
2019-05-21T19:23:53.552Z,18.27
2019-05-21T19:26:20.860Z,20.27
2019-05-21T19:28:48.101Z,19.57
2019-05-21T19:31:15.073Z,19.90
2019-05-21T19:33:42.060Z,18.65
2019-05-21T19:36:09.201Z,18.70
2019-05-21T19:38:37.237Z,20.02
2019-05-21T19:41:04.464Z,19.98
2019-05-21T19:43:33.072Z,16.95
2019-05-21T19:46:00.063Z,17.87
2019-05-21T19:48:26.906Z,37.00
2019-05-21T19:50:53.700Z,18.90
2019-05-21T19:53:20.662Z,20.10
2019-05-21T19:55:48.064Z,21.97
2019-05-21T19:58:15.494Z,19.30
2019-05-21T20:00:47.860Z,18.90
2019-05-21T20:03:14.883Z,25.33
2019-05-21T20:05:42.497Z,19.45
2019-05-21T20:08:09.883Z,21.68
2019-05-21T20:10:37.122Z,20.20
2019-05-21T20:13:04.885Z,20.27
2019-05-21T20:15:31.762Z,19.55
2019-05-21T20:18:07.080Z,21.50
2019-05-21T20:20:28.289Z,21.50
2019-05-21T20:22:55.287Z,18.65
2019-05-21T20:25:23.600Z,21.02
2019-05-21T20:27:51.385Z,19.92
2019-05-21T20:30:20.935Z,20.45
2019-05-21T20:32:48.769Z,18.80
2019-05-21T20:35:17.562Z,22.48
2019-05-21T20:37:47.129Z,23.95
2019-05-21T20:40:15.092Z,20.72
2019-05-21T20:42:43.051Z,20.32
2019-05-21T20:45:13.286Z,19.40
2019-05-21T20:47:40.901Z,20.12
2019-05-21T20:50:12.085Z,22.17
2019-05-21T20:52:39.477Z,18.23
2019-05-21T20:55:10.456Z,20.05
2019-05-21T20:57:38.330Z,19.90
2019-05-21T21:00:10.223Z,18.98
2019-05-21T21:02:38.304Z,20.15
2019-05-21T21:05:07.358Z,20.45
2019-05-21T21:07:34.339Z,19.87
2019-05-21T21:10:02.489Z,18.98
2019-05-21T21:12:33.779Z,19.65
2019-05-21T21:15:01.292Z,20.20
2019-05-21T21:17:28.473Z,21.07
2019-05-21T21:19:55.567Z,19.95
2019-05-21T21:22:22.314Z,20.23
2019-05-21T21:24:49.213Z,23.35
2019-05-21T21:27:16.504Z,18.73
2019-05-21T21:29:43.868Z,21.15
2019-05-21T21:32:10.799Z,21.42
2019-05-21T21:34:38.529Z,20.57
2019-05-21T21:37:06.446Z,18.32
2019-05-21T21:39:34.278Z,18.95
2019-05-21T21:42:02.305Z,20.90
2019-05-21T21:44:34.086Z,21.05
2019-05-21T21:47:02.064Z,22.48
2019-05-21T21:49:30.663Z,18.62
2019-05-21T21:51:59.264Z,19.60
2019-05-21T21:54:26.813Z,20.05
2019-05-21T21:56:54.518Z,21.00
2019-05-21T21:59:22.786Z,20.90
2019-05-21T22:01:54.856Z,19.25
2019-05-21T22:04:27.879Z,19.67
2019-05-21T22:06:55.873Z,21.00
2019-05-21T22:09:27.091Z,21.55
2019-05-21T22:11:55.008Z,22.13
2019-05-21T22:14:22.207Z,20.15
2019-05-21T22:16:51.834Z,20.75
2019-05-21T22:19:20.823Z,21.68
2019-05-21T22:21:48.183Z,21.25
2019-05-21T22:24:15.376Z,21.45
2019-05-21T22:26:43.018Z,22.37
2019-05-21T22:29:11.237Z,22.50
2019-05-21T22:31:38.856Z,23.12
2019-05-21T22:34:06.093Z,22.73
2019-05-21T22:36:33.089Z,22.30
2019-05-21T22:38:59.970Z,23.35
2019-05-21T22:41:27.945Z,24.52
2019-05-21T22:43:55.165Z,24.92
2019-05-21T22:46:22.087Z,23.70
2019-05-21T22:48:49.280Z,26.17
2019-05-21T22:51:16.351Z,23.90
2019-05-21T22:53:44.385Z,22.55
2019-05-21T22:56:12.234Z,25.15
2019-05-21T22:58:40.294Z,25.85
2019-05-21T23:01:09.210Z,26.73
2019-05-21T23:03:36.687Z,26.87
2019-05-21T23:06:04.659Z,26.65
2019-05-21T23:08:32.008Z,28.02
2019-05-21T23:10:58.892Z,26.93
2019-05-21T23:13:26.228Z,30.23
2019-05-21T23:15:55.576Z,27.07
2019-05-21T23:18:22.962Z,29.30
2019-05-21T23:20:50.446Z,30.23
2019-05-21T23:23:21.602Z,29.37
2019-05-21T23:25:48.718Z,26.77
2019-05-21T23:28:15.898Z,29.48
2019-05-21T23:30:43.320Z,27.75
2019-05-21T23:33:12.407Z,31.93
2019-05-21T23:35:40.147Z,30.27
2019-05-21T23:38:08.801Z,27.40
2019-05-21T23:40:35.935Z,31.50
2019-05-21T23:43:03.447Z,30.70
2019-05-21T23:45:31.106Z,29.12
2019-05-21T23:47:58.541Z,32.25
2019-05-21T23:50:27.201Z,30.08
2019-05-21T23:52:56.694Z,29.60
2019-05-21T23:55:23.743Z,30.15
2019-05-21T23:57:51.352Z,30.72
